sensor_id;sensor_type;location;lat;lon;timestamp;temperature;humidity
14172;DHT22;7165;52.388;4.928;2022-09-17T00:01:14;12.10;99.90
14172;DHT22;7165;52.388;4.928;2022-09-17T00:03:42;12.10;99.90
14172;DHT22;7165;52.388;4.928;2022-09-17T00:06:11;12.20;99.90
14172;DHT22;7165;52.388;4.928;2022-09-17T00:08:39;12.20;99.90
14172;DHT22;7165;52.388;4.928;2022-09-17T00:11:11;12.20;99.90
14172;DHT22;7165;52.388;4.928;2022-09-17T00:13:39;12.30;99.90
14172;DHT22;7165;52.388;4.928;2022-09-17T00:16:07;12.30;99.90
14172;DHT22;7165;52.388;4.928;2022-09-17T00:18:34;12.20;99.90
14172;DHT22;7165;52.388;4.928;2022-09-17T00:21:05;12.30;99.90
14172;DHT22;7165;52.388;4.928;2022-09-17T00:23:32;12.30;99.90
14172;DHT22;7165;52.388;4.928;2022-09-17T00:25:58;12.30;99.90
14172;DHT22;7165;52.388;4.928;2022-09-17T00:28:26;12.30;99.90
14172;DHT22;7165;52.388;4.928;2022-09-17T00:30:53;12.30;99.90
14172;DHT22;7165;52.388;4.928;2022-09-17T00:33:20;12.30;99.90
14172;DHT22;7165;52.388;4.928;2022-09-17T00:35:56;12.20;99.90
14172;DHT22;7165;52.388;4.928;2022-09-17T00:38:23;12.20;99.90
14172;DHT22;7165;52.388;4.928;2022-09-17T00:40:50;12.20;99.90
14172;DHT22;7165;52.388;4.928;2022-09-17T00:43:35;12.20;99.90
14172;DHT22;7165;52.388;4.928;2022-09-17T00:46:03;12.20;99.90
14172;DHT22;7165;52.388;4.928;2022-09-17T00:48:30;12.20;99.90
14172;DHT22;7165;52.388;4.928;2022-09-17T00:50:58;12.20;99.90
14172;DHT22;7165;52.388;4.928;2022-09-17T00:53:27;12.20;99.90
14172;DHT22;7165;52.388;4.928;2022-09-17T00:56:00;12.20;99.90
14172;DHT22;7165;52.388;4.928;2022-09-17T00:58:27;12.10;99.90
14172;DHT22;7165;52.388;4.928;2022-09-17T01:00:56;12.10;99.90
14172;DHT22;7165;52.388;4.928;2022-09-17T01:03:23;12.20;99.90
14172;DHT22;7165;52.388;4.928;2022-09-17T01:05:55;12.30;99.90
14172;DHT22;7165;52.388;4.928;2022-09-17T01:08:28;12.30;99.90
14172;DHT22;7165;52.388;4.928;2022-09-17T01:11:13;12.40;99.90
14172;DHT22;7165;52.388;4.928;2022-09-17T01:13:51;12.30;99.90
14172;DHT22;7165;52.388;4.928;2022-09-17T01:16:27;12.30;99.90
14172;DHT22;7165;52.388;4.928;2022-09-17T01:19:03;12.20;99.90
14172;DHT22;7165;52.388;4.928;2022-09-17T01:21:44;12.10;99.90
14172;DHT22;7165;52.388;4.928;2022-09-17T01:24:44;12.10;99.90
14172;DHT22;7165;52.388;4.928;2022-09-17T01:27:38;12.00;99.90
14172;DHT22;7165;52.388;4.928;2022-09-17T01:33:08;11.90;99.90
14172;DHT22;7165;52.388;4.928;2022-09-17T01:35:44;11.80;99.90
14172;DHT22;7165;52.388;4.928;2022-09-17T01:38:24;11.80;99.90
14172;DHT22;7165;52.388;4.928;2022-09-17T01:40:54;11.70;99.90
14172;DHT22;7165;52.388;4.928;2022-09-17T01:43:25;11.70;99.90
14172;DHT22;7165;52.388;4.928;2022-09-17T01:45:56;11.70;99.90
14172;DHT22;7165;52.388;4.928;2022-09-17T01:48:30;11.70;99.90
14172;DHT22;7165;52.388;4.928;2022-09-17T01:51:03;11.60;99.90
14172;DHT22;7165;52.388;4.928;2022-09-17T01:53:35;11.60;99.90
14172;DHT22;7165;52.388;4.928;2022-09-17T01:56:04;11.50;99.90
14172;DHT22;7165;52.388;4.928;2022-09-17T01:58:35;11.40;99.90
14172;DHT22;7165;52.388;4.928;2022-09-17T02:01:05;11.40;99.90
14172;DHT22;7165;52.388;4.928;2022-09-17T02:03:36;11.30;99.90
14172;DHT22;7165;52.388;4.928;2022-09-17T02:06:08;11.20;99.90
14172;DHT22;7165;52.388;4.928;2022-09-17T02:08:42;11.20;99.90
14172;DHT22;7165;52.388;4.928;2022-09-17T02:11:13;11.20;99.90
14172;DHT22;7165;52.388;4.928;2022-09-17T02:13:45;11.20;99.90
14172;DHT22;7165;52.388;4.928;2022-09-17T02:16:16;11.20;99.90
14172;DHT22;7165;52.388;4.928;2022-09-17T02:18:49;11.30;99.90
14172;DHT22;7165;52.388;4.928;2022-09-17T02:21:24;11.30;99.90
14172;DHT22;7165;52.388;4.928;2022-09-17T02:24:00;11.30;99.90
14172;DHT22;7165;52.388;4.928;2022-09-17T02:26:32;11.20;99.90
14172;DHT22;7165;52.388;4.928;2022-09-17T02:29:06;11.20;99.90
14172;DHT22;7165;52.388;4.928;2022-09-17T02:31:33;11.20;99.90
14172;DHT22;7165;52.388;4.928;2022-09-17T02:34:02;11.10;99.90
14172;DHT22;7165;52.388;4.928;2022-09-17T02:36:30;11.30;99.90
14172;DHT22;7165;52.388;4.928;2022-09-17T02:39:00;11.50;99.90
14172;DHT22;7165;52.388;4.928;2022-09-17T02:41:37;11.60;99.90
14172;DHT22;7165;52.388;4.928;2022-09-17T02:44:13;11.70;99.90
14172;DHT22;7165;52.388;4.928;2022-09-17T02:47:00;11.70;99.90
14172;DHT22;7165;52.388;4.928;2022-09-17T02:49:49;11.60;99.90
14172;DHT22;7165;52.388;4.928;2022-09-17T02:52:27;11.60;99.90
14172;DHT22;7165;52.388;4.928;2022-09-17T02:55:01;11.50;99.90
14172;DHT22;7165;52.388;4.928;2022-09-17T02:57:36;11.50;99.90
14172;DHT22;7165;52.388;4.928;2022-09-17T03:00:08;11.50;99.90
14172;DHT22;7165;52.388;4.928;2022-09-17T03:02:39;11.50;99.90
14172;DHT22;7165;52.388;4.928;2022-09-17T03:05:09;11.40;99.90
14172;DHT22;7165;52.388;4.928;2022-09-17T03:07:36;11.40;99.90
14172;DHT22;7165;52.388;4.928;2022-09-17T03:10:04;11.40;99.90
14172;DHT22;7165;52.388;4.928;2022-09-17T03:12:31;11.40;99.90
14172;DHT22;7165;52.388;4.928;2022-09-17T03:14:58;11.40;99.90
14172;DHT22;7165;52.388;4.928;2022-09-17T03:17:25;11.50;99.90
14172;DHT22;7165;52.388;4.928;2022-09-17T03:19:52;11.50;99.90
14172;DHT22;7165;52.388;4.928;2022-09-17T03:22:20;11.50;99.90
14172;DHT22;7165;52.388;4.928;2022-09-17T03:24:47;11.50;99.90
14172;DHT22;7165;52.388;4.928;2022-09-17T03:27:13;11.60;99.90
14172;DHT22;7165;52.388;4.928;2022-09-17T03:29:40;11.70;99.90
14172;DHT22;7165;52.388;4.928;2022-09-17T03:32:07;11.70;99.90
14172;DHT22;7165;52.388;4.928;2022-09-17T03:34:33;11.70;99.90
14172;DHT22;7165;52.388;4.928;2022-09-17T03:37:00;11.70;99.90
14172;DHT22;7165;52.388;4.928;2022-09-17T03:39:29;11.60;99.90
14172;DHT22;7165;52.388;4.928;2022-09-17T03:41:56;11.60;99.90
14172;DHT22;7165;52.388;4.928;2022-09-17T03:44:22;11.60;99.90
14172;DHT22;7165;52.388;4.928;2022-09-17T03:46:49;11.60;99.90
14172;DHT22;7165;52.388;4.928;2022-09-17T03:49:16;11.50;99.90
14172;DHT22;7165;52.388;4.928;2022-09-17T03:51:43;11.50;99.90
14172;DHT22;7165;52.388;4.928;2022-09-17T03:54:09;11.50;99.90
14172;DHT22;7165;52.388;4.928;2022-09-17T03:56:38;11.50;99.90
14172;DHT22;7165;52.388;4.928;2022-09-17T03:59:04;11.40;99.90
14172;DHT22;7165;52.388;4.928;2022-09-17T04:01:31;11.40;99.90
14172;DHT22;7165;52.388;4.928;2022-09-17T04:03:58;11.40;99.90
14172;DHT22;7165;52.388;4.928;2022-09-17T04:06:24;11.40;99.90
14172;DHT22;7165;52.388;4.928;2022-09-17T04:08:51;11.40;99.90
14172;DHT22;7165;52.388;4.928;2022-09-17T04:11:18;11.40;99.90
14172;DHT22;7165;52.388;4.928;2022-09-17T04:13:46;11.40;99.90
14172;DHT22;7165;52.388;4.928;2022-09-17T04:16:13;11.40;99.90
14172;DHT22;7165;52.388;4.928;2022-09-17T04:18:39;11.50;99.90
14172;DHT22;7165;52.388;4.928;2022-09-17T04:21:06;11.50;99.90
14172;DHT22;7165;52.388;4.928;2022-09-17T04:23:33;11.50;99.90
14172;DHT22;7165;52.388;4.928;2022-09-17T04:25:59;11.50;99.90
14172;DHT22;7165;52.388;4.928;2022-09-17T04:28:26;11.50;99.90
14172;DHT22;7165;52.388;4.928;2022-09-17T04:30:54;11.50;99.90
14172;DHT22;7165;52.388;4.928;2022-09-17T04:33:22;11.50;99.90
14172;DHT22;7165;52.388;4.928;2022-09-17T04:35:48;11.50;99.90
14172;DHT22;7165;52.388;4.928;2022-09-17T04:38:15;11.60;99.90
14172;DHT22;7165;52.388;4.928;2022-09-17T04:40:44;11.60;99.90
14172;DHT22;7165;52.388;4.928;2022-09-17T04:43:12;11.60;99.90
14172;DHT22;7165;52.388;4.928;2022-09-17T04:45:39;11.60;99.90
14172;DHT22;7165;52.388;4.928;2022-09-17T04:48:07;11.70;99.90
14172;DHT22;7165;52.388;4.928;2022-09-17T04:50:34;11.70;99.90
14172;DHT22;7165;52.388;4.928;2022-09-17T04:53:00;11.70;99.90
14172;DHT22;7165;52.388;4.928;2022-09-17T04:55:28;11.70;99.90
14172;DHT22;7165;52.388;4.928;2022-09-17T04:57:55;11.70;99.90
14172;DHT22;7165;52.388;4.928;2022-09-17T05:00:23;11.70;99.90
14172;DHT22;7165;52.388;4.928;2022-09-17T05:02:51;11.70;99.90
14172;DHT22;7165;52.388;4.928;2022-09-17T05:05:20;11.80;99.90
14172;DHT22;7165;52.388;4.928;2022-09-17T05:07:47;11.80;99.90
14172;DHT22;7165;52.388;4.928;2022-09-17T05:10:16;11.80;99.90
14172;DHT22;7165;52.388;4.928;2022-09-17T05:12:47;11.90;99.90
14172;DHT22;7165;52.388;4.928;2022-09-17T05:15:14;11.90;99.90
14172;DHT22;7165;52.388;4.928;2022-09-17T05:17:40;11.90;99.90
14172;DHT22;7165;52.388;4.928;2022-09-17T05:20:08;11.90;99.90
14172;DHT22;7165;52.388;4.928;2022-09-17T05:22:40;11.90;99.90
14172;DHT22;7165;52.388;4.928;2022-09-17T05:25:07;12.00;99.90
14172;DHT22;7165;52.388;4.928;2022-09-17T05:27:34;12.00;99.90
14172;DHT22;7165;52.388;4.928;2022-09-17T05:30:00;12.10;99.90
14172;DHT22;7165;52.388;4.928;2022-09-17T05:32:27;12.10;99.90
14172;DHT22;7165;52.388;4.928;2022-09-17T05:34:54;12.10;99.90
14172;DHT22;7165;52.388;4.928;2022-09-17T05:37:21;12.10;99.90
14172;DHT22;7165;52.388;4.928;2022-09-17T05:39:49;12.10;99.90
14172;DHT22;7165;52.388;4.928;2022-09-17T05:42:16;12.10;99.90
14172;DHT22;7165;52.388;4.928;2022-09-17T05:44:43;12.00;99.90
14172;DHT22;7165;52.388;4.928;2022-09-17T05:47:10;12.00;99.90
14172;DHT22;7165;52.388;4.928;2022-09-17T05:49:36;11.90;99.90
14172;DHT22;7165;52.388;4.928;2022-09-17T05:52:03;11.80;99.90
14172;DHT22;7165;52.388;4.928;2022-09-17T05:54:30;11.80;99.90
14172;DHT22;7165;52.388;4.928;2022-09-17T05:56:58;11.70;99.90
14172;DHT22;7165;52.388;4.928;2022-09-17T05:59:26;11.70;99.90
14172;DHT22;7165;52.388;4.928;2022-09-17T06:01:53;11.70;99.90
14172;DHT22;7165;52.388;4.928;2022-09-17T06:04:20;11.60;99.90
14172;DHT22;7165;52.388;4.928;2022-09-17T06:06:46;11.60;99.90
14172;DHT22;7165;52.388;4.928;2022-09-17T06:09:13;11.60;99.90
14172;DHT22;7165;52.388;4.928;2022-09-17T06:11:40;11.60;99.90
14172;DHT22;7165;52.388;4.928;2022-09-17T06:14:09;11.60;99.90
14172;DHT22;7165;52.388;4.928;2022-09-17T06:16:35;11.60;99.90
14172;DHT22;7165;52.388;4.928;2022-09-17T06:19:02;11.60;99.90
14172;DHT22;7165;52.388;4.928;2022-09-17T06:21:29;11.60;99.90
14172;DHT22;7165;52.388;4.928;2022-09-17T06:23:56;11.60;99.90
14172;DHT22;7165;52.388;4.928;2022-09-17T06:26:23;11.60;99.90
14172;DHT22;7165;52.388;4.928;2022-09-17T06:28:50;11.70;99.90
14172;DHT22;7165;52.388;4.928;2022-09-17T06:31:18;11.70;99.90
14172;DHT22;7165;52.388;4.928;2022-09-17T06:33:44;11.80;99.90
14172;DHT22;7165;52.388;4.928;2022-09-17T06:36:12;11.80;99.90
14172;DHT22;7165;52.388;4.928;2022-09-17T06:38:39;11.80;99.90
14172;DHT22;7165;52.388;4.928;2022-09-17T06:41:06;11.80;99.90
14172;DHT22;7165;52.388;4.928;2022-09-17T06:43:32;11.80;99.90
14172;DHT22;7165;52.388;4.928;2022-09-17T06:46:00;11.80;99.90
14172;DHT22;7165;52.388;4.928;2022-09-17T06:48:30;11.90;99.90
14172;DHT22;7165;52.388;4.928;2022-09-17T06:51:01;11.90;99.90
14172;DHT22;7165;52.388;4.928;2022-09-17T06:53:28;12.00;99.90
14172;DHT22;7165;52.388;4.928;2022-09-17T06:55:56;12.10;99.90
14172;DHT22;7165;52.388;4.928;2022-09-17T06:58:22;12.20;99.90
14172;DHT22;7165;52.388;4.928;2022-09-17T07:00:49;12.30;99.90
14172;DHT22;7165;52.388;4.928;2022-09-17T07:03:16;12.30;99.90
14172;DHT22;7165;52.388;4.928;2022-09-17T07:05:44;12.40;99.90
14172;DHT22;7165;52.388;4.928;2022-09-17T07:08:11;12.40;99.90
14172;DHT22;7165;52.388;4.928;2022-09-17T07:10:38;12.50;99.90
14172;DHT22;7165;52.388;4.928;2022-09-17T07:13:04;12.60;99.90
14172;DHT22;7165;52.388;4.928;2022-09-17T07:15:31;12.70;99.90
14172;DHT22;7165;52.388;4.928;2022-09-17T07:17:58;12.80;99.90
14172;DHT22;7165;52.388;4.928;2022-09-17T07:20:27;12.90;99.90
14172;DHT22;7165;52.388;4.928;2022-09-17T07:22:57;13.00;99.90
14172;DHT22;7165;52.388;4.928;2022-09-17T07:25:25;13.10;99.90
14172;DHT22;7165;52.388;4.928;2022-09-17T07:27:52;13.20;99.90
14172;DHT22;7165;52.388;4.928;2022-09-17T07:30:19;13.20;99.90
14172;DHT22;7165;52.388;4.928;2022-09-17T07:32:46;13.30;99.90
14172;DHT22;7165;52.388;4.928;2022-09-17T07:35:12;13.40;99.90
14172;DHT22;7165;52.388;4.928;2022-09-17T07:37:39;13.40;99.90
14172;DHT22;7165;52.388;4.928;2022-09-17T07:40:08;13.50;99.90
14172;DHT22;7165;52.388;4.928;2022-09-17T07:42:35;13.60;99.90
14172;DHT22;7165;52.388;4.928;2022-09-17T07:45:02;13.70;99.90
14172;DHT22;7165;52.388;4.928;2022-09-17T07:47:28;13.80;99.90
14172;DHT22;7165;52.388;4.928;2022-09-17T07:49:55;13.90;99.90
14172;DHT22;7165;52.388;4.928;2022-09-17T07:52:22;14.00;99.90
14172;DHT22;7165;52.388;4.928;2022-09-17T07:54:49;14.10;99.90
14172;DHT22;7165;52.388;4.928;2022-09-17T07:57:17;14.30;99.90
14172;DHT22;7165;52.388;4.928;2022-09-17T07:59:43;14.50;99.90
14172;DHT22;7165;52.388;4.928;2022-09-17T08:02:11;14.60;99.90
14172;DHT22;7165;52.388;4.928;2022-09-17T08:04:41;14.70;99.90
14172;DHT22;7165;52.388;4.928;2022-09-17T08:07:10;14.60;99.90
14172;DHT22;7165;52.388;4.928;2022-09-17T08:09:38;14.40;99.90
14172;DHT22;7165;52.388;4.928;2022-09-17T08:12:05;14.20;99.90
14172;DHT22;7165;52.388;4.928;2022-09-17T08:14:33;14.00;99.90
14172;DHT22;7165;52.388;4.928;2022-09-17T08:17:00;13.80;99.90
14172;DHT22;7165;52.388;4.928;2022-09-17T08:19:30;13.80;99.90
14172;DHT22;7165;52.388;4.928;2022-09-17T08:21:57;13.90;99.90
14172;DHT22;7165;52.388;4.928;2022-09-17T08:24:23;14.00;99.90
14172;DHT22;7165;52.388;4.928;2022-09-17T08:26:50;14.00;99.90
14172;DHT22;7165;52.388;4.928;2022-09-17T08:29:17;14.00;99.90
14172;DHT22;7165;52.388;4.928;2022-09-17T08:31:45;13.90;99.90
14172;DHT22;7165;52.388;4.928;2022-09-17T08:34:12;13.90;99.90
14172;DHT22;7165;52.388;4.928;2022-09-17T08:36:39;13.90;99.90
14172;DHT22;7165;52.388;4.928;2022-09-17T08:39:06;13.90;99.90
14172;DHT22;7165;52.388;4.928;2022-09-17T08:41:44;13.90;99.90
14172;DHT22;7165;52.388;4.928;2022-09-17T08:44:21;13.80;99.90
14172;DHT22;7165;52.388;4.928;2022-09-17T08:46:53;13.70;99.90
14172;DHT22;7165;52.388;4.928;2022-09-17T08:49:28;13.60;99.90
14172;DHT22;7165;52.388;4.928;2022-09-17T08:52:30;13.50;99.90
14172;DHT22;7165;52.388;4.928;2022-09-17T08:55:05;13.40;99.90
14172;DHT22;7165;52.388;4.928;2022-09-17T08:57:45;13.40;99.90
14172;DHT22;7165;52.388;4.928;2022-09-17T09:00:16;13.50;99.90
14172;DHT22;7165;52.388;4.928;2022-09-17T09:02:59;13.70;99.90
14172;DHT22;7165;52.388;4.928;2022-09-17T09:05:32;13.90;99.90
14172;DHT22;7165;52.388;4.928;2022-09-17T09:08:05;14.10;99.90
14172;DHT22;7165;52.388;4.928;2022-09-17T09:10:45;14.30;99.90
14172;DHT22;7165;52.388;4.928;2022-09-17T09:13:15;14.60;99.90
14172;DHT22;7165;52.388;4.928;2022-09-17T09:15:46;14.80;99.90
14172;DHT22;7165;52.388;4.928;2022-09-17T09:18:18;14.80;99.90
14172;DHT22;7165;52.388;4.928;2022-09-17T09:20:50;14.40;99.90
14172;DHT22;7165;52.388;4.928;2022-09-17T09:23:20;14.00;99.90
14172;DHT22;7165;52.388;4.928;2022-09-17T09:25:56;13.60;99.90
14172;DHT22;7165;52.388;4.928;2022-09-17T09:28:34;13.50;99.90
14172;DHT22;7165;52.388;4.928;2022-09-17T09:31:08;13.50;99.90
14172;DHT22;7165;52.388;4.928;2022-09-17T09:33:40;13.30;99.90
14172;DHT22;7165;52.388;4.928;2022-09-17T09:36:11;13.20;99.90
14172;DHT22;7165;52.388;4.928;2022-09-17T09:38:45;13.30;99.90
14172;DHT22;7165;52.388;4.928;2022-09-17T09:41:18;13.40;99.90
14172;DHT22;7165;52.388;4.928;2022-09-17T09:43:46;13.60;99.90
14172;DHT22;7165;52.388;4.928;2022-09-17T09:46:39;13.80;99.90
14172;DHT22;7165;52.388;4.928;2022-09-17T09:49:17;14.10;99.90
14172;DHT22;7165;52.388;4.928;2022-09-17T09:51:57;14.40;99.90
14172;DHT22;7165;52.388;4.928;2022-09-17T09:54:38;14.50;99.90
14172;DHT22;7165;52.388;4.928;2022-09-17T09:57:10;14.60;99.90
14172;DHT22;7165;52.388;4.928;2022-09-17T09:59:38;14.60;99.90
14172;DHT22;7165;52.388;4.928;2022-09-17T10:02:05;14.80;99.90
14172;DHT22;7165;52.388;4.928;2022-09-17T10:04:33;15.00;99.90
14172;DHT22;7165;52.388;4.928;2022-09-17T10:07:02;14.90;99.90
14172;DHT22;7165;52.388;4.928;2022-09-17T10:09:31;14.70;99.90
14172;DHT22;7165;52.388;4.928;2022-09-17T10:12:04;14.70;99.90
14172;DHT22;7165;52.388;4.928;2022-09-17T10:14:32;14.90;99.90
14172;DHT22;7165;52.388;4.928;2022-09-17T10:17:18;15.10;99.90
14172;DHT22;7165;52.388;4.928;2022-09-17T10:20:15;15.40;99.90
14172;DHT22;7165;52.388;4.928;2022-09-17T10:22:43;15.70;99.90
14172;DHT22;7165;52.388;4.928;2022-09-17T10:25:27;15.90;99.90
14172;DHT22;7165;52.388;4.928;2022-09-17T10:27:55;16.10;99.90
14172;DHT22;7165;52.388;4.928;2022-09-17T10:30:23;16.40;99.90
14172;DHT22;7165;52.388;4.928;2022-09-17T10:33:13;16.40;99.90
14172;DHT22;7165;52.388;4.928;2022-09-17T10:35:53;16.30;99.90
14172;DHT22;7165;52.388;4.928;2022-09-17T10:38:27;16.00;99.90
14172;DHT22;7165;52.388;4.928;2022-09-17T10:41:07;15.70;99.90
14172;DHT22;7165;52.388;4.928;2022-09-17T10:43:35;15.80;99.90
14172;DHT22;7165;52.388;4.928;2022-09-17T10:46:02;15.90;99.90
14172;DHT22;7165;52.388;4.928;2022-09-17T10:48:31;16.00;99.90
14172;DHT22;7165;52.388;4.928;2022-09-17T10:51:00;16.10;99.90
14172;DHT22;7165;52.388;4.928;2022-09-17T10:53:30;16.20;99.90
14172;DHT22;7165;52.388;4.928;2022-09-17T10:56:08;16.40;99.90
14172;DHT22;7165;52.388;4.928;2022-09-17T10:58:47;16.50;99.90
14172;DHT22;7165;52.388;4.928;2022-09-17T11:01:28;16.80;99.90
14172;DHT22;7165;52.388;4.928;2022-09-17T11:07:08;17.40;99.90
14172;DHT22;7165;52.388;4.928;2022-09-17T11:09:46;17.30;99.90
14172;DHT22;7165;52.388;4.928;2022-09-17T11:12:39;16.80;99.90
14172;DHT22;7165;52.388;4.928;2022-09-17T11:15:19;16.40;99.90
14172;DHT22;7165;52.388;4.928;2022-09-17T11:18:05;16.30;99.90
14172;DHT22;7165;52.388;4.928;2022-09-17T11:20:46;16.30;99.90
14172;DHT22;7165;52.388;4.928;2022-09-17T11:23:38;16.20;99.90
14172;DHT22;7165;52.388;4.928;2022-09-17T11:26:17;16.20;99.90
14172;DHT22;7165;52.388;4.928;2022-09-17T11:28:56;16.10;99.90
14172;DHT22;7165;52.388;4.928;2022-09-17T11:31:33;16.10;99.90
14172;DHT22;7165;52.388;4.928;2022-09-17T11:34:22;16.40;99.90
14172;DHT22;7165;52.388;4.928;2022-09-17T11:36:58;16.80;99.90
14172;DHT22;7165;52.388;4.928;2022-09-17T11:39:33;17.00;99.90
14172;DHT22;7165;52.388;4.928;2022-09-17T11:42:04;17.20;99.90
14172;DHT22;7165;52.388;4.928;2022-09-17T11:44:37;17.30;99.90
14172;DHT22;7165;52.388;4.928;2022-09-17T11:47:09;17.30;99.90
14172;DHT22;7165;52.388;4.928;2022-09-17T11:49:41;17.10;99.90
14172;DHT22;7165;52.388;4.928;2022-09-17T11:52:13;17.00;99.90
14172;DHT22;7165;52.388;4.928;2022-09-17T11:54:47;17.20;99.90
14172;DHT22;7165;52.388;4.928;2022-09-17T11:57:16;17.20;99.90
14172;DHT22;7165;52.388;4.928;2022-09-17T11:59:48;17.40;99.90
14172;DHT22;7165;52.388;4.928;2022-09-17T12:02:20;17.40;99.90
14172;DHT22;7165;52.388;4.928;2022-09-17T12:04:53;17.60;99.90
14172;DHT22;7165;52.388;4.928;2022-09-17T12:07:29;17.40;99.90
14172;DHT22;7165;52.388;4.928;2022-09-17T12:10:07;17.50;99.90
14172;DHT22;7165;52.388;4.928;2022-09-17T12:12:44;17.70;99.90
14172;DHT22;7165;52.388;4.928;2022-09-17T12:15:19;17.80;99.90
14172;DHT22;7165;52.388;4.928;2022-09-17T12:17:49;17.60;99.90
14172;DHT22;7165;52.388;4.928;2022-09-17T12:20:22;17.20;99.90
14172;DHT22;7165;52.388;4.928;2022-09-17T12:22:53;17.20;99.90
14172;DHT22;7165;52.388;4.928;2022-09-17T12:25:23;17.50;99.90
14172;DHT22;7165;52.388;4.928;2022-09-17T12:27:52;17.70;99.90
14172;DHT22;7165;52.388;4.928;2022-09-17T12:30:22;17.90;99.90
14172;DHT22;7165;52.388;4.928;2022-09-17T12:33:06;18.10;99.90
14172;DHT22;7165;52.388;4.928;2022-09-17T12:41:44;17.90;99.90
14172;DHT22;7165;52.388;4.928;2022-09-17T12:44:35;17.80;99.90
14172;DHT22;7165;52.388;4.928;2022-09-17T12:47:18;18.00;99.90
14172;DHT22;7165;52.388;4.928;2022-09-17T12:50:00;18.40;99.90
14172;DHT22;7165;52.388;4.928;2022-09-17T12:52:36;18.70;99.90
14172;DHT22;7165;52.388;4.928;2022-09-17T12:55:34;18.60;99.90
14172;DHT22;7165;52.388;4.928;2022-09-17T12:58:13;18.40;99.90
14172;DHT22;7165;52.388;4.928;2022-09-17T13:00:43;18.60;99.90
14172;DHT22;7165;52.388;4.928;2022-09-17T13:03:18;18.70;99.90
14172;DHT22;7165;52.388;4.928;2022-09-17T13:09:19;18.60;99.90
14172;DHT22;7165;52.388;4.928;2022-09-17T13:12:05;18.40;99.90
14172;DHT22;7165;52.388;4.928;2022-09-17T13:14:53;18.20;99.90
14172;DHT22;7165;52.388;4.928;2022-09-17T13:17:30;18.30;99.90
14172;DHT22;7165;52.388;4.928;2022-09-17T13:20:02;18.30;99.90
14172;DHT22;7165;52.388;4.928;2022-09-17T13:22:31;18.40;99.90
14172;DHT22;7165;52.388;4.928;2022-09-17T13:25:04;18.40;99.90
14172;DHT22;7165;52.388;4.928;2022-09-17T13:27:32;18.10;99.90
14172;DHT22;7165;52.388;4.928;2022-09-17T13:30:05;18.10;99.90
14172;DHT22;7165;52.388;4.928;2022-09-17T13:32:45;18.30;99.90
14172;DHT22;7165;52.388;4.928;2022-09-17T13:35:46;18.50;99.90
14172;DHT22;7165;52.388;4.928;2022-09-17T13:38:14;18.50;99.90
14172;DHT22;7165;52.388;4.928;2022-09-17T13:40:42;18.50;99.90
14172;DHT22;7165;52.388;4.928;2022-09-17T13:43:12;18.60;99.90
14172;DHT22;7165;52.388;4.928;2022-09-17T13:46:06;18.50;99.90
14172;DHT22;7165;52.388;4.928;2022-09-17T13:48:35;18.10;99.90
14172;DHT22;7165;52.388;4.928;2022-09-17T13:54:05;17.20;99.90
14172;DHT22;7165;52.388;4.928;2022-09-17T13:56:35;17.00;99.90
14172;DHT22;7165;52.388;4.928;2022-09-17T13:59:05;17.00;99.90
14172;DHT22;7165;52.388;4.928;2022-09-17T14:01:59;16.80;99.90
14172;DHT22;7165;52.388;4.928;2022-09-17T14:07:31;16.40;99.90
14172;DHT22;7165;52.388;4.928;2022-09-17T14:09:58;16.50;99.90
14172;DHT22;7165;52.388;4.928;2022-09-17T14:12:51;16.80;99.90
14172;DHT22;7165;52.388;4.928;2022-09-17T14:15:36;17.00;99.90
14172;DHT22;7165;52.388;4.928;2022-09-17T14:18:44;17.00;99.90
14172;DHT22;7165;52.388;4.928;2022-09-17T14:21:15;16.90;99.90
14172;DHT22;7165;52.388;4.928;2022-09-17T14:23:55;17.10;99.90
14172;DHT22;7165;52.388;4.928;2022-09-17T14:26:48;17.00;99.90
14172;DHT22;7165;52.388;4.928;2022-09-17T14:29:34;17.10;99.90
14172;DHT22;7165;52.388;4.928;2022-09-17T14:32:06;17.30;99.90
14172;DHT22;7165;52.388;4.928;2022-09-17T14:34:35;17.40;99.90
14172;DHT22;7165;52.388;4.928;2022-09-17T14:37:02;17.40;99.90
14172;DHT22;7165;52.388;4.928;2022-09-17T14:39:38;17.20;99.90
14172;DHT22;7165;52.388;4.928;2022-09-17T14:42:12;17.00;99.90
14172;DHT22;7165;52.388;4.928;2022-09-17T14:44:48;16.80;99.90
14172;DHT22;7165;52.388;4.928;2022-09-17T14:47:17;16.70;99.90
14172;DHT22;7165;52.388;4.928;2022-09-17T14:49:47;17.00;99.90
14172;DHT22;7165;52.388;4.928;2022-09-17T14:52:26;17.40;99.90
14172;DHT22;7165;52.388;4.928;2022-09-17T14:55:10;17.60;99.90
14172;DHT22;7165;52.388;4.928;2022-09-17T14:57:36;17.90;99.90
14172;DHT22;7165;52.388;4.928;2022-09-17T15:00:04;17.90;99.90
14172;DHT22;7165;52.388;4.928;2022-09-17T15:02:34;18.00;99.90
14172;DHT22;7165;52.388;4.928;2022-09-17T15:05:15;18.20;99.90
14172;DHT22;7165;52.388;4.928;2022-09-17T15:07:42;18.10;99.90
14172;DHT22;7165;52.388;4.928;2022-09-17T15:10:13;17.80;99.90
14172;DHT22;7165;52.388;4.928;2022-09-17T15:12:41;17.50;99.90
14172;DHT22;7165;52.388;4.928;2022-09-17T15:15:16;17.50;99.90
14172;DHT22;7165;52.388;4.928;2022-09-17T15:17:44;17.40;99.90
14172;DHT22;7165;52.388;4.928;2022-09-17T15:20:16;17.20;99.90
14172;DHT22;7165;52.388;4.928;2022-09-17T15:22:47;17.20;99.90
14172;DHT22;7165;52.388;4.928;2022-09-17T15:25:18;17.30;99.90
14172;DHT22;7165;52.388;4.928;2022-09-17T15:27:49;17.40;99.90
14172;DHT22;7165;52.388;4.928;2022-09-17T15:30:18;17.70;99.90
14172;DHT22;7165;52.388;4.928;2022-09-17T15:32:48;17.80;99.90
14172;DHT22;7165;52.388;4.928;2022-09-17T15:35:24;17.50;99.90
14172;DHT22;7165;52.388;4.928;2022-09-17T15:37:55;17.20;99.90
14172;DHT22;7165;52.388;4.928;2022-09-17T15:40:27;17.00;99.90
14172;DHT22;7165;52.388;4.928;2022-09-17T15:43:01;16.80;99.90
14172;DHT22;7165;52.388;4.928;2022-09-17T15:45:29;16.70;99.90
14172;DHT22;7165;52.388;4.928;2022-09-17T15:47:58;16.50;99.90
14172;DHT22;7165;52.388;4.928;2022-09-17T15:50:27;16.50;99.90
14172;DHT22;7165;52.388;4.928;2022-09-17T15:53:12;16.30;99.90
14172;DHT22;7165;52.388;4.928;2022-09-17T15:55:40;16.10;99.90
14172;DHT22;7165;52.388;4.928;2022-09-17T15:58:23;15.80;99.90
14172;DHT22;7165;52.388;4.928;2022-09-17T16:01:49;15.50;99.90
14172;DHT22;7165;52.388;4.928;2022-09-17T16:04:19;15.10;99.90
14172;DHT22;7165;52.388;4.928;2022-09-17T16:07:22;14.70;99.90
14172;DHT22;7165;52.388;4.928;2022-09-17T16:09:50;14.50;99.90
14172;DHT22;7165;52.388;4.928;2022-09-17T16:12:20;14.30;99.90
14172;DHT22;7165;52.388;4.928;2022-09-17T16:14:48;14.20;99.90
14172;DHT22;7165;52.388;4.928;2022-09-17T16:17:27;14.10;99.90
14172;DHT22;7165;52.388;4.928;2022-09-17T16:19:57;14.00;99.90
14172;DHT22;7165;52.388;4.928;2022-09-17T16:22:26;13.90;99.90
14172;DHT22;7165;52.388;4.928;2022-09-17T16:24:54;13.90;99.90
14172;DHT22;7165;52.388;4.928;2022-09-17T16:27:23;13.90;99.90
14172;DHT22;7165;52.388;4.928;2022-09-17T16:30:00;13.80;99.90
14172;DHT22;7165;52.388;4.928;2022-09-17T16:32:27;13.70;99.90
14172;DHT22;7165;52.388;4.928;2022-09-17T16:34:53;13.70;99.90
14172;DHT22;7165;52.388;4.928;2022-09-17T16:37:20;13.70;99.90